createdAt,value
2023-05-05T00:01:09.577Z,44.99
2023-05-05T00:03:48.281Z,45.24
2023-05-05T00:06:20.979Z,45.00
2023-05-05T00:08:53.636Z,45.09
2023-05-05T00:11:58.662Z,45.27
2023-05-05T00:14:31.242Z,45.07
2023-05-05T00:17:10.489Z,44.83
2023-05-05T00:19:43.064Z,44.96
2023-05-05T00:22:22.651Z,44.94
2023-05-05T00:25:01.032Z,44.73
2023-05-05T00:27:33.630Z,44.77
2023-05-05T00:30:07.133Z,45.10
2023-05-05T00:32:40.109Z,45.10
2023-05-05T00:35:12.733Z,45.08
2023-05-05T00:37:45.635Z,44.65
2023-05-05T00:40:18.839Z,44.80
2023-05-05T00:42:51.552Z,45.14
2023-05-05T00:45:24.430Z,45.20
2023-05-05T00:47:59.958Z,44.83
2023-05-05T00:50:36.518Z,45.05
2023-05-05T00:53:09.042Z,44.86
2023-05-05T00:55:41.856Z,45.16
2023-05-05T00:58:14.708Z,45.33
2023-05-05T01:01:07.738Z,45.21
2023-05-05T01:03:43.578Z,45.15
2023-05-05T01:06:47.640Z,45.23
2023-05-05T01:09:38.640Z,45.19
2023-05-05T01:12:48.729Z,45.28
2023-05-05T01:15:36.168Z,45.19
2023-05-05T01:18:56.484Z,44.78
2023-05-05T01:21:43.351Z,45.22
2023-05-05T01:24:43.519Z,45.26
2023-05-05T01:27:48.828Z,45.00
2023-05-05T01:30:24.024Z,45.13
2023-05-05T01:33:03.864Z,44.88
2023-05-05T01:35:45.885Z,44.90
2023-05-05T01:38:41.133Z,45.32
2023-05-05T01:41:44.623Z,44.84
2023-05-05T01:44:28.929Z,45.00
2023-05-05T01:47:04.503Z,45.25
2023-05-05T01:49:38.210Z,45.25
2023-05-05T01:52:12.595Z,45.39
2023-05-05T01:54:50.854Z,45.27
2023-05-05T01:57:25.893Z,45.08
2023-05-05T02:00:01.750Z,45.34
2023-05-05T02:02:49.383Z,45.07
2023-05-05T02:05:29.205Z,45.03
2023-05-05T02:08:15.032Z,45.50
2023-05-05T02:10:48.406Z,45.00
2023-05-05T02:13:26.112Z,45.14
2023-05-05T02:15:59.770Z,45.18
2023-05-05T02:18:46.299Z,44.96
2023-05-05T02:21:20.115Z,45.03
2023-05-05T02:24:08.580Z,45.15
2023-05-05T02:29:36.588Z,45.55
2023-05-05T02:32:34.216Z,45.16
2023-05-05T02:35:14.228Z,45.09
2023-05-05T02:38:01.985Z,45.23
2023-05-05T02:40:35.591Z,45.20
2023-05-05T02:43:11.400Z,44.92
2023-05-05T02:45:47.075Z,45.13
2023-05-05T02:48:22.094Z,45.32
2023-05-05T02:51:00.385Z,45.53
2023-05-05T02:53:33.230Z,45.12
2023-05-05T02:56:11.169Z,45.22
2023-05-05T02:59:34.695Z,45.16
2023-05-05T03:02:48.508Z,45.17
2023-05-05T03:06:03.398Z,44.97
2023-05-05T03:09:01.602Z,45.22
2023-05-05T03:11:49.254Z,45.16
2023-05-05T03:14:22.304Z,45.43
2023-05-05T03:16:56.638Z,45.31
2023-05-05T03:19:30.741Z,45.48
2023-05-05T03:22:06.417Z,45.20
2023-05-05T03:24:51.530Z,45.06
2023-05-05T03:27:24.069Z,45.38
2023-05-05T03:30:12.581Z,45.37
2023-05-05T03:32:53.453Z,45.37
2023-05-05T03:35:34.910Z,45.31
2023-05-05T03:38:19.709Z,44.91
2023-05-05T03:40:55.857Z,45.72
2023-05-05T03:43:34.684Z,45.27
2023-05-05T03:46:19.628Z,45.35
2023-05-05T03:48:57.257Z,45.29
2023-05-05T03:51:32.810Z,45.30
2023-05-05T03:54:17.238Z,45.44
2023-05-05T03:56:49.737Z,45.42
2023-05-05T03:59:22.208Z,45.36
2023-05-05T04:01:54.919Z,45.62
2023-05-05T04:04:39.650Z,45.40
2023-05-05T04:07:12.216Z,45.17
2023-05-05T04:09:44.891Z,45.08
2023-05-05T04:12:17.428Z,45.58
2023-05-05T04:14:52.924Z,45.62
2023-05-05T04:17:25.538Z,45.53
2023-05-05T04:19:58.351Z,45.76
2023-05-05T04:22:36.678Z,45.49
2023-05-05T04:25:09.276Z,45.39
2023-05-05T04:27:51.072Z,45.59
2023-05-05T04:30:26.213Z,45.76
2023-05-05T04:33:05.106Z,45.42
2023-05-05T04:35:43.350Z,45.56
2023-05-05T04:41:08.278Z,45.52
2023-05-05T04:43:41.282Z,45.60
2023-05-05T04:46:16.292Z,45.48
2023-05-05T04:48:51.603Z,45.28
2023-05-05T04:51:27.723Z,45.66
2023-05-05T04:54:00.304Z,45.51
2023-05-05T04:56:44.040Z,45.97
2023-05-05T04:59:19.509Z,45.62
2023-05-05T05:02:01.274Z,45.90
2023-05-05T05:04:36.443Z,45.85
2023-05-05T05:07:09.489Z,45.52
2023-05-05T05:10:07.406Z,45.91
2023-05-05T05:12:41.231Z,45.90
2023-05-05T05:15:13.723Z,45.35
2023-05-05T05:17:52.648Z,45.35
2023-05-05T05:20:25.392Z,45.65
2023-05-05T05:22:58.181Z,45.22
2023-05-05T05:25:33.993Z,46.32
2023-05-05T05:28:10.641Z,46.00
2023-05-05T05:30:43.595Z,45.56
2023-05-05T05:33:16.154Z,45.55
2023-05-05T05:36:03.285Z,45.75
2023-05-05T05:38:35.745Z,45.39
2023-05-05T05:41:19.458Z,45.90
2023-05-05T05:44:10.421Z,45.43
2023-05-05T05:47:05.182Z,45.86
2023-05-05T05:49:36.337Z,45.61
2023-05-05T05:52:11.660Z,45.68
2023-05-05T05:54:59.323Z,45.47
2023-05-05T05:57:33.360Z,45.48
2023-05-05T06:00:06.794Z,45.50
2023-05-05T06:02:39.765Z,45.38
2023-05-05T06:05:13.062Z,46.04
2023-05-05T06:07:45.569Z,45.83
2023-05-05T06:10:27.901Z,45.72
2023-05-05T06:13:01.052Z,45.49
2023-05-05T06:15:33.672Z,45.58
2023-05-05T06:18:06.226Z,45.20
2023-05-05T06:20:38.760Z,45.42
2023-05-05T06:27:05.570Z,45.35
2023-05-05T06:29:38.106Z,45.61
2023-05-05T06:36:03.051Z,45.92
2023-05-05T06:38:44.468Z,45.31
2023-05-05T06:41:17.012Z,45.69
2023-05-05T06:43:49.630Z,45.36
2023-05-05T06:46:28.294Z,45.41
2023-05-05T06:49:09.926Z,45.80
2023-05-05T06:51:47.929Z,45.03
2023-05-05T06:54:20.550Z,45.43
2023-05-05T06:56:53.135Z,45.36
2023-05-05T06:59:34.067Z,45.88
2023-05-05T07:02:06.595Z,45.34
2023-05-05T07:04:43.851Z,45.12
2023-05-05T07:07:16.809Z,45.41
2023-05-05T07:10:00.052Z,45.53
2023-05-05T07:12:32.730Z,45.78
2023-05-05T07:15:19.198Z,45.68
2023-05-05T07:17:56.695Z,45.45
2023-05-05T07:20:29.440Z,45.29
2023-05-05T07:23:02.180Z,45.06
2023-05-05T07:25:34.710Z,45.84
2023-05-05T07:28:07.309Z,45.77
2023-05-05T07:30:42.863Z,45.50
2023-05-05T07:33:15.992Z,45.87
2023-05-05T07:35:48.592Z,46.35
2023-05-05T07:38:26.930Z,46.02
2023-05-05T07:40:59.383Z,46.48
2023-05-05T07:43:39.414Z,46.44
2023-05-05T07:46:12.447Z,46.34
2023-05-05T07:48:44.981Z,46.26
2023-05-05T07:51:17.507Z,46.47
2023-05-05T07:53:51.157Z,46.58
2023-05-05T07:56:29.854Z,46.61
2023-05-05T07:59:02.476Z,46.56
2023-05-05T08:01:34.955Z,46.55
2023-05-05T08:04:07.838Z,46.41
2023-05-05T08:06:40.414Z,46.64
2023-05-05T08:09:13.312Z,46.59
2023-05-05T08:11:48.879Z,46.85
2023-05-05T08:14:21.424Z,46.65
2023-05-05T08:16:53.966Z,46.41
2023-05-05T08:19:50.806Z,46.26
2023-05-05T08:22:23.296Z,46.60
2023-05-05T08:24:55.926Z,46.44
2023-05-05T08:27:35.411Z,46.13
2023-05-05T08:30:09.434Z,46.52
2023-05-05T08:32:41.972Z,45.47
2023-05-05T08:35:16.625Z,45.94
2023-05-05T08:37:51.122Z,45.93
2023-05-05T08:40:41.379Z,45.93
2023-05-05T08:43:24.024Z,46.20
2023-05-05T08:46:03.969Z,46.27
2023-05-05T08:48:38.989Z,46.30
2023-05-05T08:51:38.205Z,46.16
2023-05-05T08:54:40.266Z,45.96
2023-05-05T08:57:17.194Z,46.18
2023-05-05T08:59:50.660Z,45.85
2023-05-05T09:02:24.520Z,45.83
2023-05-05T09:04:57.313Z,46.06
2023-05-05T09:07:30.110Z,45.97
2023-05-05T09:10:06.112Z,46.03
2023-05-05T09:12:42.206Z,46.04
2023-05-05T09:15:28.363Z,45.87
2023-05-05T09:18:01.990Z,45.63
2023-05-05T09:20:36.370Z,45.49
2023-05-05T09:23:21.403Z,45.63
2023-05-05T09:26:05.360Z,45.67
2023-05-05T09:28:37.947Z,46.08
2023-05-05T09:31:22.578Z,45.55
2023-05-05T09:33:55.667Z,45.46
2023-05-05T09:36:47.788Z,45.89
2023-05-05T09:39:24.531Z,45.77
2023-05-05T09:42:06.376Z,45.65
2023-05-05T09:44:40.057Z,46.14
2023-05-05T09:47:26.088Z,45.71
2023-05-05T09:50:13.412Z,45.87
2023-05-05T09:53:02.997Z,45.72
2023-05-05T09:55:36.145Z,45.88
2023-05-05T10:02:29.702Z,45.81
2023-05-05T10:05:09.696Z,45.66
2023-05-05T10:07:44.823Z,45.32
2023-05-05T10:10:18.441Z,45.50
2023-05-05T10:12:51.428Z,45.87
2023-05-05T10:15:24.005Z,45.58
2023-05-05T10:18:07.763Z,46.02
2023-05-05T10:23:49.306Z,45.75
2023-05-05T10:26:23.038Z,45.77
2023-05-05T10:29:01.676Z,45.62
2023-05-05T10:32:08.699Z,45.67
2023-05-05T10:35:03.245Z,46.05
2023-05-05T10:37:38.078Z,46.08
2023-05-05T10:40:22.726Z,45.95
2023-05-05T10:42:55.671Z,45.89
2023-05-05T10:45:28.468Z,45.48
2023-05-05T10:51:57.435Z,45.64
2023-05-05T10:55:31.943Z,45.83
2023-05-05T10:58:58.368Z,45.72
2023-05-05T11:01:59.659Z,46.19
2023-05-05T11:04:41.457Z,45.87
2023-05-05T11:07:32.625Z,45.95
2023-05-05T11:10:07.751Z,46.30
2023-05-05T11:12:57.705Z,46.28
2023-05-05T11:15:30.553Z,46.37
2023-05-05T11:18:08.197Z,46.32
2023-05-05T11:20:59.336Z,46.08
2023-05-05T11:24:00.912Z,46.08
2023-05-05T11:26:52.409Z,46.26
2023-05-05T11:30:07.734Z,46.31
2023-05-05T11:32:40.532Z,46.03
2023-05-05T11:35:14.519Z,46.45
2023-05-05T11:38:06.416Z,46.45
2023-05-05T11:40:47.395Z,46.61
2023-05-05T11:43:22.816Z,46.54
2023-05-05T11:46:55.762Z,46.36
2023-05-05T11:52:37.458Z,46.70
2023-05-05T11:55:12.318Z,46.54
2023-05-05T11:57:48.848Z,46.47
2023-05-05T12:00:33.959Z,46.69
2023-05-05T12:03:06.595Z,46.48
2023-05-05T12:05:47.411Z,46.63
2023-05-05T12:08:22.450Z,46.28
2023-05-05T12:11:09.082Z,46.58
2023-05-05T12:13:46.879Z,46.30
2023-05-05T12:16:20.064Z,46.85
2023-05-05T12:19:14.330Z,46.74
2023-05-05T12:21:50.662Z,46.62
2023-05-05T12:24:32.499Z,46.80
2023-05-05T12:27:33.451Z,46.93
2023-05-05T12:30:33.163Z,46.95
2023-05-05T12:33:22.923Z,46.99
2023-05-05T12:35:55.712Z,46.74
2023-05-05T12:42:15.040Z,47.52
2023-05-05T12:44:48.456Z,47.30
2023-05-05T12:47:46.363Z,47.53
2023-05-05T12:50:46.541Z,47.08
2023-05-05T13:03:38.552Z,47.36
2023-05-05T13:14:21.018Z,47.41
2023-05-05T13:45:50.325Z,47.72
2023-05-05T13:49:12.767Z,48.03
2023-05-05T13:51:46.891Z,48.06
2023-05-05T13:54:19.723Z,47.89
2023-05-05T13:56:55.124Z,47.87
2023-05-05T13:59:28.347Z,47.98
2023-05-05T14:02:01.290Z,47.88
2023-05-05T14:55:49.808Z,50.44
2023-05-05T14:58:23.642Z,50.80
2023-05-05T15:07:31.317Z,50.42
2023-05-05T15:53:06.326Z,49.80
2023-05-05T16:43:27.611Z,49.29
2023-05-05T17:33:18.654Z,49.53
2023-05-05T17:39:48.174Z,50.26
2023-05-05T17:45:55.052Z,51.88
2023-05-05T17:51:18.141Z,51.92
2023-05-05T17:56:44.684Z,51.59
2023-05-05T17:59:27.224Z,51.22
2023-05-05T18:05:37.987Z,51.71
2023-05-05T18:08:29.272Z,51.55
2023-05-05T18:11:01.999Z,51.16
2023-05-05T18:16:33.891Z,51.59
2023-05-05T18:19:06.504Z,51.48
2023-05-05T18:21:42.434Z,51.71
2023-05-05T18:27:02.363Z,51.28
2023-05-05T18:29:36.081Z,51.35
2023-05-05T18:32:09.589Z,51.49
2023-05-05T18:34:44.598Z,51.33
2023-05-05T18:37:17.442Z,51.06
2023-05-05T18:39:52.020Z,51.50
2023-05-05T18:42:30.709Z,51.51
2023-05-05T18:48:09.803Z,51.50
2023-05-05T18:50:54.405Z,51.16
2023-05-05T18:53:27.386Z,50.88
2023-05-05T18:56:00.542Z,51.11
2023-05-05T18:58:54.689Z,51.09
2023-05-05T19:01:27.354Z,51.15
2023-05-05T19:07:31.352Z,51.04
2023-05-05T19:10:09.380Z,51.22
2023-05-05T19:12:45.040Z,50.77
2023-05-05T19:15:18.335Z,50.83
2023-05-05T19:17:51.065Z,50.88
2023-05-05T19:20:25.643Z,50.66
2023-05-05T19:23:03.962Z,51.04
2023-05-05T19:25:36.739Z,51.07
2023-05-05T19:28:21.797Z,51.14
2023-05-05T19:30:54.408Z,51.03
2023-05-05T19:33:27.152Z,50.85
2023-05-05T19:36:16.642Z,50.71
2023-05-05T19:38:51.494Z,50.87
2023-05-05T19:41:24.200Z,50.50
2023-05-05T19:44:12.166Z,50.90
2023-05-05T19:46:44.896Z,50.48
2023-05-05T19:49:17.432Z,50.60
2023-05-05T19:51:59.052Z,50.65
2023-05-05T19:54:41.347Z,50.75
2023-05-05T19:57:18.438Z,50.59
2023-05-05T20:00:20.435Z,50.20
2023-05-05T20:02:53.184Z,50.65
2023-05-05T20:05:26.303Z,50.54
2023-05-05T20:08:11.117Z,50.86
2023-05-05T20:26:41.428Z,50.33
2023-05-05T20:33:40.172Z,50.13
2023-05-05T21:00:34.253Z,50.60
2023-05-05T21:03:09.997Z,50.49
2023-05-05T21:05:46.446Z,50.28
2023-05-05T21:08:21.694Z,50.10
2023-05-05T21:10:54.272Z,50.01
2023-05-05T21:13:45.803Z,50.31
2023-05-05T21:16:31.502Z,50.62
2023-05-05T21:19:12.810Z,50.02
2023-05-05T21:21:45.383Z,50.27
2023-05-05T21:24:25.010Z,49.95
2023-05-05T21:27:03.709Z,50.76
2023-05-05T21:29:50.044Z,50.22
2023-05-05T21:32:31.719Z,50.46
2023-05-05T21:35:05.445Z,50.39
2023-05-05T21:37:40.339Z,50.22
2023-05-05T21:40:16.332Z,50.63
2023-05-05T21:42:51.790Z,49.90
2023-05-05T21:45:24.421Z,50.25
2023-05-05T22:05:59.954Z,50.13
2023-05-05T22:08:58.697Z,50.01
2023-05-05T22:11:31.348Z,50.60
2023-05-05T22:14:08.637Z,49.82
2023-05-05T22:16:49.915Z,50.26
2023-05-05T22:19:24.029Z,50.36
2023-05-05T22:22:17.497Z,50.38
2023-05-05T22:24:56.139Z,50.16
2023-05-05T22:27:42.035Z,50.00
2023-05-05T22:31:04.852Z,50.25
2023-05-05T22:34:27.530Z,49.95
2023-05-05T22:37:00.094Z,49.95
2023-05-05T22:39:33.260Z,50.17
2023-05-05T22:42:09.047Z,50.49
2023-05-05T22:44:42.616Z,50.30
2023-05-05T22:47:16.391Z,50.37
2023-05-05T22:50:20.290Z,50.51
2023-05-05T22:52:52.804Z,50.23
2023-05-05T22:55:25.423Z,50.80
2023-05-05T22:58:12.319Z,50.07
2023-05-05T23:00:44.837Z,50.37
2023-05-05T23:03:20.488Z,50.56
2023-05-05T23:05:58.963Z,50.21
2023-05-05T23:08:49.758Z,50.15
2023-05-05T23:11:22.349Z,50.71
2023-05-05T23:14:36.493Z,50.21
2023-05-05T23:17:12.281Z,50.57
2023-05-05T23:19:48.028Z,50.41
2023-05-05T23:22:20.601Z,49.99
2023-05-05T23:24:53.343Z,50.51
2023-05-05T23:27:40.002Z,50.70
2023-05-05T23:32:50.158Z,50.73
2023-05-05T23:35:28.901Z,50.59
2023-05-05T23:38:01.467Z,50.38
2023-05-05T23:40:34.248Z,50.85
2023-05-05T23:43:06.796Z,50.70
2023-05-05T23:45:40.442Z,50.84
2023-05-05T23:48:12.946Z,49.92
2023-05-05T23:50:45.558Z,50.59
2023-05-05T23:53:26.902Z,50.28
2023-05-05T23:56:24.602Z,49.85
2023-05-05T23:58:57.310Z,50.47
